Amarant — CQSF — position and weather

sailwx.info

Track history (hours):
 
Tides and Currents Weather Stations Pressure Air Temp Water Temp Dewpoint Dewpoint Depression Visibility Wind Speed Wind Dir Waves Ship Positions

Amarant

Last reported at 2016-Sep-26 01:19 UTC. Time now 2016-Sep-28 23:57 UTC.
Position N 55°38' E 015°26'.

Length 123 m; draft 6.8 m.

Type: Tanker. MMSI: 255623000.

Date/timePositionNaut miles runAvg speedWind from/ knotsBaromVisibWave heightAir tempDewpointWater temp
2016-Sep-26 01:19N 55°38' E 015°26'1013.3
2016-Sep-26 00:33N 55°34' E 015°10'3912.9
2016-Sep-25 21:33N 55°10' E 014°16'4812.1
2016-Sep-25 17:34N 55°15' E 012°52'1010.0
2016-Sep-25 16:33N 55°21' E 012°39'1211.5
2016-Sep-25 15:34N 55°33' E 012°42'9 9.3
2016-Sep-25 14:34N 55°42' E 012°41'2412.0
2016-Sep-25 12:34N 56°06' E 012°34'3913.0
2016-Sep-25 09:33N 56°42' E 012°07'2612.8
2016-Sep-25 07:33N 57°07' E 011°55'3311.1
2016-Sep-25 04:34N 57°40' E 011°47'4 1.0
2016-Sep-25 00:31N 57°41' E 011°53'0 0.0
2016-Sep-24 22:34N 57°41' E 011°53'0 0.0
2016-Sep-24 21:33N 57°41' E 011°53'0 0.0
2016-Sep-24 19:33N 57°41' E 011°53'0 0.0
2016-Sep-24 18:33N 57°41' E 011°53'0 0.0
2016-Sep-24 17:33N 57°41' E 011°53'0 0.0
2016-Sep-24 16:33N 57°41' E 011°53'0 0.0
2016-Sep-24 14:30N 57°41' E 011°53'0 0.0
2016-Sep-24 12:33N 57°41' E 011°53'0 0.0
2016-Sep-24 10:33N 57°41' E 011°53'0 0.0
2016-Sep-24 09:33N 57°41' E 011°53'0 0.0
2016-Sep-24 03:33N 57°41' E 011°53'0 0.0
2016-Sep-24 02:33N 57°41' E 011°53'0 0.0
2016-Sep-24 01:33N 57°41' E 011°53'7 6.5
2016-Sep-24 00:33N 57°39' E 011°42'46713.0
2016-Sep-22 12:32N 53°45' W 000°15'5 0.6
2016-Sep-22 04:34N 53°40' W 000°13'8 7.7
2016-Sep-22 03:33N 53°36' W 000°02'20 6.7
2016-Sep-22 00:34N 53°31' E 000°31'13 5.7
2016-Sep-21 22:14N 53°24' E 000°50'2810.5
2016-Sep-21 19:33N 53°08' E 001°29'13713.7
2016-Sep-21 09:34N 51°21' E 003°48'1212.0
2016-Sep-21 08:34N 51°22' E 004°07'12 3.9
2016-Sep-21 05:31N 51°15' E 004°22'0 0.0
2016-Sep-21 03:31N 51°15' E 004°22'0 0.0
2016-Sep-21 02:31N 51°15' E 004°22'0 0.0
2016-Sep-20 17:33N 51°15' E 004°22'0 0.0
2016-Sep-20 14:33N 51°15' E 004°22'0 0.0
2016-Sep-20 13:33N 51°15' E 004°22'0 0.0
2016-Sep-20 10:33N 51°15' E 004°22'0 0.0
2016-Sep-20 08:33N 51°15' E 004°22'0 0.0
2016-Sep-20 07:33N 51°15' E 004°22'0 0.0
2016-Sep-20 06:33N 51°15' E 004°22'4 1.0
2016-Sep-20 02:33N 51°18' E 004°18'27 9.1
2016-Sep-19 23:33N 51°26' E 003°36'14910.6
2016-Sep-19 09:31N 53°39' E 005°25'2412.1
2016-Sep-19 07:32N 53°46' E 006°03'1312.9
2016-Sep-19 06:33N 53°51' E 006°23'4314.4
2016-Sep-19 03:33N 54°01' E 007°35'1414.1
2016-Sep-19 02:33N 54°01' E 007°59'2612.8
2016-Sep-19 00:34N 53°55' E 008°41'54 6.0
2016-Sep-18 15:33N 54°22' E 010°01'4 3.7
2016-Sep-18 14:33N 54°22' E 010°08'13 3.3
2016-Sep-18 10:33N 54°31' E 010°23'1413.8
2016-Sep-18 09:33N 54°35' E 010°46'10012.5
2016-Sep-18 01:33N 54°58' E 013°36'1413.7
2016-Sep-18 00:33N 55°03' E 013°58'2613.2
2016-Sep-17 22:33N 55°23' E 014°29'1313.4
2016-Sep-17 21:34N 55°30' E 014°48'1413.8
2016-Sep-17 20:33N 55°37' E 015°09'20712.8
2016-Sep-17 04:19N 58°45' E 017°53'  
Track history (hours):
 
Tides and Currents Weather Stations Pressure Air Temp Water Temp Dewpoint Dewpoint Depression Visibility Wind Speed Wind Dir Waves Ship Positions

Amarant

Last reported at 2016-Sep-26 01:19 UTC. Time now 2016-Sep-28 23:57 UTC.
Position N 55°38' E 015°26'.

Length 123 m; draft 6.8 m.

Type: Tanker. MMSI: 255623000.

Date/timePositionNaut miles runAvg speedWind from/ knotsBaromVisibWave heightAir tempDewpointWater temp
2016-Sep-26 01:19N 55°38' E 015°26'1013.3
2016-Sep-26 00:33N 55°34' E 015°10'3912.9
2016-Sep-25 21:33N 55°10' E 014°16'4812.1
2016-Sep-25 17:34N 55°15' E 012°52'1010.0
2016-Sep-25 16:33N 55°21' E 012°39'1211.5
2016-Sep-25 15:34N 55°33' E 012°42'9 9.3
2016-Sep-25 14:34N 55°42' E 012°41'2412.0
2016-Sep-25 12:34N 56°06' E 012°34'3913.0
2016-Sep-25 09:33N 56°42' E 012°07'2612.8
2016-Sep-25 07:33N 57°07' E 011°55'3311.1
2016-Sep-25 04:34N 57°40' E 011°47'4 1.0
2016-Sep-25 00:31N 57°41' E 011°53'0 0.0
2016-Sep-24 22:34N 57°41' E 011°53'0 0.0
2016-Sep-24 21:33N 57°41' E 011°53'0 0.0
2016-Sep-24 19:33N 57°41' E 011°53'0 0.0
2016-Sep-24 18:33N 57°41' E 011°53'0 0.0
2016-Sep-24 17:33N 57°41' E 011°53'0 0.0
2016-Sep-24 16:33N 57°41' E 011°53'0 0.0
2016-Sep-24 14:30N 57°41' E 011°53'0 0.0
2016-Sep-24 12:33N 57°41' E 011°53'0 0.0
2016-Sep-24 10:33N 57°41' E 011°53'0 0.0
2016-Sep-24 09:33N 57°41' E 011°53'0 0.0
2016-Sep-24 03:33N 57°41' E 011°53'0 0.0
2016-Sep-24 02:33N 57°41' E 011°53'0 0.0
2016-Sep-24 01:33N 57°41' E 011°53'7 6.5
2016-Sep-24 00:33N 57°39' E 011°42'46713.0
2016-Sep-22 12:32N 53°45' W 000°15'5 0.6
2016-Sep-22 04:34N 53°40' W 000°13'8 7.7
2016-Sep-22 03:33N 53°36' W 000°02'20 6.7
2016-Sep-22 00:34N 53°31' E 000°31'13 5.7
2016-Sep-21 22:14N 53°24' E 000°50'2810.5
2016-Sep-21 19:33N 53°08' E 001°29'13713.7
2016-Sep-21 09:34N 51°21' E 003°48'1212.0
2016-Sep-21 08:34N 51°22' E 004°07'12 3.9
2016-Sep-21 05:31N 51°15' E 004°22'0 0.0
2016-Sep-21 03:31N 51°15' E 004°22'0 0.0
2016-Sep-21 02:31N 51°15' E 004°22'0 0.0
2016-Sep-20 17:33N 51°15' E 004°22'0 0.0
2016-Sep-20 14:33N 51°15' E 004°22'0 0.0
2016-Sep-20 13:33N 51°15' E 004°22'0 0.0
2016-Sep-20 10:33N 51°15' E 004°22'0 0.0
2016-Sep-20 08:33N 51°15' E 004°22'0 0.0
2016-Sep-20 07:33N 51°15' E 004°22'0 0.0
2016-Sep-20 06:33N 51°15' E 004°22'4 1.0
2016-Sep-20 02:33N 51°18' E 004°18'27 9.1
2016-Sep-19 23:33N 51°26' E 003°36'14910.6
2016-Sep-19 09:31N 53°39' E 005°25'2412.1
2016-Sep-19 07:32N 53°46' E 006°03'1312.9
2016-Sep-19 06:33N 53°51' E 006°23'4314.4
2016-Sep-19 03:33N 54°01' E 007°35'1414.1
2016-Sep-19 02:33N 54°01' E 007°59'2612.8
2016-Sep-19 00:34N 53°55' E 008°41'54 6.0
2016-Sep-18 15:33N 54°22' E 010°01'4 3.7
2016-Sep-18 14:33N 54°22' E 010°08'13 3.3
2016-Sep-18 10:33N 54°31' E 010°23'1413.8
2016-Sep-18 09:33N 54°35' E 010°46'10012.5
2016-Sep-18 01:33N 54°58' E 013°36'1413.7
2016-Sep-18 00:33N 55°03' E 013°58'2613.2
2016-Sep-17 22:33N 55°23' E 014°29'1313.4
2016-Sep-17 21:34N 55°30' E 014°48'1413.8
2016-Sep-17 20:33N 55°37' E 015°09'20712.8
2016-Sep-17 04:19N 58°45' E 017°53'  

Dump ship's entire track history